Tatoosh Island, Washington
Current Conditions -  °F | °C
As of 4:53 AM on Thursday 30 Oct 2014 (Local Time) from KUIL Reporting Station
Light Rain Light Rain  
Wind Chill: 51°   Ceiling: 5500
Heat Index: 51°   Visibility: 3mi
Dew Point: 48°   Wind: 7mph
Humidity: 89%   Direction: 90°E
Pressure: 29.84"   Gusts: NA
Location:  48.3685°N, 124.623°W
Report Text: KUIL 301153Z AUTO 09006KT 3SM -RA BR SCT042 OVC055 11/09 A2984 RMK AO2 RAB45 SLP105 P0000 60000 70002 T01060089 10106 20100 58027
Loading
Personal Weather Stations






























Interactive Weather Map
Tropical Storm Tracking
New forecast layout! Learn more

10-Day Weather Forecast

Advertisements
Track Severe Weather on mobile